createdAt,value
2022-11-20T00:00:57.054Z,949.9
2022-11-20T00:03:56.603Z,949.9
2022-11-20T00:06:57.991Z,949.84
2022-11-20T00:09:57.009Z,949.84
2022-11-20T00:12:57.300Z,949.84
2022-11-20T00:15:57.433Z,949.9
2022-11-20T00:18:57.256Z,949.95
2022-11-20T00:21:57.322Z,949.91
2022-11-20T00:24:57.128Z,949.99
2022-11-20T00:27:57.157Z,949.93
2022-11-20T00:31:13.529Z,949.96
2022-11-20T00:33:57.212Z,949.96
2022-11-20T00:36:57.317Z,949.93
2022-11-20T00:39:57.259Z,949.91
2022-11-20T00:42:57.312Z,949.99
2022-11-20T00:45:57.173Z,949.89
2022-11-20T00:48:56.878Z,949.93
2022-11-20T00:51:57.079Z,949.93
2022-11-20T00:54:57.050Z,949.96
2022-11-20T00:57:56.988Z,950.04
2022-11-20T01:00:57.510Z,950.05
2022-11-20T01:03:57.791Z,950.01
2022-11-20T01:06:57.492Z,950.05
2022-11-20T01:09:57.679Z,950.01
2022-11-20T01:12:57.812Z,950.06
2022-11-20T01:15:57.187Z,950.11
2022-11-20T01:18:57.656Z,950.07
2022-11-20T01:21:57.637Z,950.04
2022-11-20T01:24:57.614Z,950.05
2022-11-20T01:27:56.812Z,950.12
2022-11-20T01:30:57.595Z,950.2
2022-11-20T01:33:57.618Z,950.08
2022-11-20T01:36:56.701Z,950.2
2022-11-20T01:39:57.778Z,950.09
2022-11-20T01:42:56.815Z,950.2
2022-11-20T01:45:58.035Z,950.22
2022-11-20T01:48:57.159Z,950.11
2022-11-20T01:51:57.331Z,950.2
2022-11-20T01:54:57.799Z,950.14
2022-11-20T01:57:58.045Z,950.08
2022-11-20T02:00:58.547Z,950.05
2022-11-20T02:03:57.643Z,950.17
2022-11-20T02:06:56.935Z,950.09
2022-11-20T02:09:58.719Z,950.2
2022-11-20T02:12:57.509Z,950.1
2022-11-20T02:15:57.440Z,950.03
2022-11-20T02:18:56.855Z,950.11
2022-11-20T02:21:57.213Z,950.17
2022-11-20T02:24:57.556Z,950.13
2022-11-20T02:27:57.286Z,950.11
2022-11-20T02:30:57.057Z,950.15
2022-11-20T02:33:56.811Z,950.18
2022-11-20T02:36:57.134Z,950.17
2022-11-20T02:39:58.047Z,950.04
2022-11-20T02:42:57.235Z,950.17
2022-11-20T02:45:57.347Z,950.24
2022-11-20T02:48:57.874Z,950.13
2022-11-20T02:51:56.661Z,950.06
2022-11-20T02:54:57.274Z,950.06
2022-11-20T02:57:57.727Z,950.07
2022-11-20T03:00:57.844Z,950.1
2022-11-20T03:03:57.629Z,950.07
2022-11-20T03:06:57.204Z,950.1
2022-11-20T03:09:57.774Z,949.94
2022-11-20T03:12:57.977Z,950.1
2022-11-20T03:15:57.730Z,950.07
2022-11-20T03:18:57.423Z,950.01
2022-11-20T03:21:57.389Z,950.04
2022-11-20T03:24:57.311Z,950.07
2022-11-20T03:27:57.024Z,949.92
2022-11-20T03:30:57.392Z,950.03
2022-11-20T03:33:57.726Z,949.94
2022-11-20T03:36:56.949Z,949.96
2022-11-20T03:39:58.043Z,950.1
2022-11-20T03:42:56.903Z,950.12
2022-11-20T03:45:57.675Z,950.1
2022-11-20T03:48:57.738Z,950.09
2022-11-20T03:51:56.656Z,950.06
2022-11-20T03:54:56.826Z,950.1
2022-11-20T03:57:57.598Z,950.06
2022-11-20T04:00:57.354Z,950.03
2022-11-20T04:03:56.964Z,950.08
2022-11-20T04:06:57.763Z,949.96
2022-11-20T04:09:57.389Z,950.06
2022-11-20T04:12:57.582Z,949.96
2022-11-20T04:15:57.864Z,949.97
2022-11-20T04:18:57.008Z,950.05
2022-11-20T04:21:57.020Z,949.95
2022-11-20T04:24:57.966Z,949.9
2022-11-20T04:27:57.572Z,949.96
2022-11-20T04:30:57.422Z,949.93
2022-11-20T04:33:57.218Z,949.8
2022-11-20T04:36:57.672Z,949.9
2022-11-20T04:39:57.750Z,949.9
2022-11-20T04:42:57.431Z,949.82
2022-11-20T04:45:57.390Z,949.76
2022-11-20T04:48:57.473Z,949.73
2022-11-20T04:51:57.477Z,949.81
2022-11-20T04:54:56.624Z,949.77
2022-11-20T04:57:57.917Z,949.8
2022-11-20T05:00:57.855Z,949.76
2022-11-20T05:03:56.761Z,949.66
2022-11-20T05:06:57.021Z,949.75
2022-11-20T05:09:57.709Z,949.76
2022-11-20T05:12:57.362Z,949.72
2022-11-20T05:15:57.140Z,949.8
2022-11-20T05:18:57.193Z,949.82
2022-11-20T05:21:57.338Z,949.73
2022-11-20T05:24:57.547Z,949.72
2022-11-20T05:27:57.355Z,949.76
2022-11-20T05:30:57.135Z,949.83
2022-11-20T05:33:57.192Z,949.85
2022-11-20T05:36:57.524Z,949.9
2022-11-20T05:39:57.986Z,949.84
2022-11-20T05:42:57.036Z,949.83
2022-11-20T05:45:57.301Z,949.79
2022-11-20T05:48:56.921Z,949.95
2022-11-20T05:51:57.653Z,949.9
2022-11-20T05:54:56.967Z,949.91
2022-11-20T05:57:57.911Z,949.89
2022-11-20T06:00:57.573Z,949.85
2022-11-20T06:03:57.531Z,949.97
2022-11-20T06:06:57.304Z,949.94
2022-11-20T06:09:56.975Z,949.9
2022-11-20T06:12:57.460Z,949.9
2022-11-20T06:15:57.723Z,949.98
2022-11-20T06:18:57.080Z,949.88
2022-11-20T06:21:57.381Z,949.9
2022-11-20T06:24:56.773Z,949.9
2022-11-20T06:27:56.854Z,949.84
2022-11-20T06:30:57.486Z,949.82
2022-11-20T06:33:57.484Z,949.87
2022-11-20T06:36:57.726Z,949.87
2022-11-20T06:39:57.420Z,949.93
2022-11-20T06:42:57.610Z,949.96
2022-11-20T06:45:56.868Z,950.0
2022-11-20T06:48:57.864Z,949.88
2022-11-20T06:51:57.638Z,950.02
2022-11-20T06:54:57.583Z,950.04
2022-11-20T06:57:56.885Z,949.99
2022-11-20T07:00:57.922Z,949.94
2022-11-20T07:03:57.363Z,950.0
2022-11-20T07:06:57.051Z,949.97
2022-11-20T07:09:57.327Z,949.99
2022-11-20T07:12:57.534Z,950.04
2022-11-20T07:15:57.722Z,950.09
2022-11-20T07:18:57.677Z,950.07
2022-11-20T07:21:57.923Z,950.04
2022-11-20T07:24:57.154Z,950.09
2022-11-20T07:27:57.176Z,950.17
2022-11-20T07:30:57.447Z,950.24
2022-11-20T07:33:57.092Z,950.14
2022-11-20T07:36:57.779Z,950.1
2022-11-20T07:39:57.296Z,950.13
2022-11-20T07:42:57.352Z,950.07
2022-11-20T07:45:57.233Z,950.16
2022-11-20T07:48:57.208Z,950.07
2022-11-20T07:52:01.722Z,950.16
2022-11-20T07:54:57.819Z,950.13
2022-11-20T07:57:57.452Z,950.21
2022-11-20T08:00:57.183Z,950.17
2022-11-20T08:03:57.171Z,950.24
2022-11-20T08:06:57.521Z,950.21
2022-11-20T08:09:58.144Z,950.28
2022-11-20T08:12:57.203Z,950.24
2022-11-20T08:15:57.377Z,950.24
2022-11-20T08:18:57.348Z,950.22
2022-11-20T08:21:57.389Z,950.21
2022-11-20T08:24:57.098Z,950.19
2022-11-20T08:28:00.206Z,950.21
2022-11-20T08:30:57.580Z,950.3
2022-11-20T08:33:56.831Z,950.22
2022-11-20T08:36:56.686Z,950.2
2022-11-20T08:39:58.193Z,950.26
2022-11-20T08:42:57.560Z,950.32
2022-11-20T08:45:58.076Z,950.26
2022-11-20T08:48:57.925Z,950.35
2022-11-20T08:51:56.927Z,950.26
2022-11-20T08:54:57.620Z,950.38
2022-11-20T08:57:56.992Z,950.42
2022-11-20T09:00:58.256Z,950.36
2022-11-20T09:03:57.330Z,950.41
2022-11-20T09:06:57.501Z,950.48
2022-11-20T09:10:22.211Z,950.44
2022-11-20T09:12:57.181Z,950.44
2022-11-20T09:15:58.135Z,950.48
2022-11-20T09:19:28.251Z,950.39
2022-11-20T09:21:59.874Z,950.42
2022-11-20T09:24:57.037Z,950.38
2022-11-20T09:27:57.237Z,950.46
2022-11-20T09:30:57.831Z,950.45
2022-11-20T09:33:57.898Z,950.45
2022-11-20T09:36:57.151Z,950.38
2022-11-20T09:39:57.749Z,950.39
2022-11-20T09:42:57.261Z,950.39
2022-11-20T09:45:57.094Z,950.42
2022-11-20T09:48:56.692Z,950.43
2022-11-20T09:51:57.547Z,950.39
2022-11-20T09:54:56.954Z,950.58
2022-11-20T09:57:57.533Z,950.43
2022-11-20T10:00:57.582Z,950.49
2022-11-20T10:03:57.108Z,950.59
2022-11-20T10:07:30.340Z,950.52
2022-11-20T10:09:57.405Z,950.51
2022-11-20T10:12:57.716Z,950.58
2022-11-20T10:15:57.559Z,950.51
2022-11-20T10:18:57.736Z,950.62
2022-11-20T10:21:57.643Z,950.62
2022-11-20T10:24:57.333Z,950.59
2022-11-20T10:27:56.875Z,950.62
2022-11-20T10:30:57.978Z,950.51
2022-11-20T10:34:11.484Z,950.48
2022-11-20T10:36:57.163Z,950.54
2022-11-20T10:39:57.598Z,950.57
2022-11-20T10:42:57.900Z,950.61
2022-11-20T10:45:57.735Z,950.65
2022-11-20T10:48:57.883Z,950.62
2022-11-20T10:51:57.953Z,950.59
2022-11-20T10:54:57.751Z,950.52
2022-11-20T10:57:57.035Z,950.42
2022-11-20T11:00:58.593Z,950.47
2022-11-20T11:04:16.358Z,950.52
2022-11-20T11:06:57.644Z,950.38
2022-11-20T11:09:57.265Z,950.39
2022-11-20T11:12:57.077Z,950.39
2022-11-20T11:15:58.000Z,950.31
2022-11-20T11:18:57.462Z,950.25
2022-11-20T11:21:58.027Z,950.34
2022-11-20T11:24:56.972Z,950.31
2022-11-20T11:27:57.161Z,950.1
2022-11-20T11:30:57.725Z,950.05
2022-11-20T11:33:57.086Z,950.15
2022-11-20T11:36:57.417Z,950.27
2022-11-20T11:40:22.927Z,950.29
2022-11-20T11:42:57.862Z,950.2
2022-11-20T11:45:58.009Z,950.23
2022-11-20T11:48:57.259Z,950.28
2022-11-20T11:51:56.905Z,950.15
2022-11-20T11:54:57.322Z,950.25
2022-11-20T11:57:57.931Z,950.13
2022-11-20T12:00:57.834Z,950.01
2022-11-20T12:03:57.852Z,949.95
2022-11-20T12:06:57.467Z,950.02
2022-11-20T12:09:57.721Z,950.11
2022-11-20T12:12:56.648Z,950.18
2022-11-20T12:15:57.719Z,950.13
2022-11-20T12:18:57.329Z,950.0
2022-11-20T12:21:59.975Z,949.92
2022-11-20T12:24:57.415Z,949.99
2022-11-20T12:27:57.879Z,949.97
2022-11-20T12:30:57.354Z,949.91
2022-11-20T12:33:57.385Z,949.89
2022-11-20T12:36:57.392Z,950.01
2022-11-20T12:39:57.736Z,949.88
2022-11-20T12:42:57.159Z,949.93
2022-11-20T12:45:57.871Z,949.95
2022-11-20T12:48:58.185Z,949.93
2022-11-20T12:51:57.575Z,950.0
2022-11-20T12:54:57.130Z,949.86
2022-11-20T12:57:57.571Z,949.83
2022-11-20T13:00:58.070Z,949.9
2022-11-20T13:03:57.410Z,949.84
2022-11-20T13:06:57.581Z,949.79
2022-11-20T13:09:58.181Z,949.89
2022-11-20T13:12:57.478Z,949.83
2022-11-20T13:15:57.546Z,949.82
2022-11-20T13:18:58.030Z,949.88
2022-11-20T13:21:57.235Z,949.74
2022-11-20T13:24:56.959Z,949.76
2022-11-20T13:27:57.616Z,949.67
2022-11-20T13:30:57.163Z,949.65
2022-11-20T13:33:57.714Z,949.7
2022-11-20T13:36:57.058Z,949.63
2022-11-20T13:39:57.666Z,949.64
2022-11-20T13:42:56.943Z,949.64
2022-11-20T13:45:57.233Z,949.64
2022-11-20T13:48:57.387Z,949.73
2022-11-20T13:51:57.506Z,949.7
2022-11-20T13:54:56.973Z,949.66
2022-11-20T13:57:57.472Z,949.61
2022-11-20T14:00:58.212Z,949.7
2022-11-20T14:04:06.502Z,949.63
2022-11-20T14:06:57.285Z,949.67
2022-11-20T14:09:57.803Z,949.76
2022-11-20T14:12:57.180Z,949.66
2022-11-20T14:15:57.907Z,949.51
2022-11-20T14:18:57.710Z,949.58
2022-11-20T14:21:58.093Z,949.48
2022-11-20T14:24:57.308Z,949.53
2022-11-20T14:27:57.193Z,949.49
2022-11-20T14:30:57.534Z,949.52
2022-11-20T14:33:57.781Z,949.5
2022-11-20T14:36:56.669Z,949.61
2022-11-20T14:39:57.397Z,949.59
2022-11-20T14:42:57.148Z,949.63
2022-11-20T14:45:57.769Z,949.52
2022-11-20T14:48:57.621Z,949.41
2022-11-20T14:51:56.757Z,949.52
2022-11-20T14:54:57.450Z,949.5
2022-11-20T14:57:57.945Z,949.4
2022-11-20T15:00:57.362Z,949.4
2022-11-20T15:03:57.871Z,949.46
2022-11-20T15:06:57.790Z,949.52
2022-11-20T15:09:57.488Z,949.41
2022-11-20T15:12:57.643Z,949.47
2022-11-20T15:15:58.054Z,949.3
2022-11-20T15:18:56.754Z,949.37
2022-11-20T15:21:56.989Z,949.27
2022-11-20T15:24:57.053Z,949.23
2022-11-20T15:27:57.141Z,949.32
2022-11-20T15:30:57.165Z,949.32
2022-11-20T15:33:57.446Z,949.23
2022-11-20T15:36:57.128Z,949.27
2022-11-20T15:39:57.065Z,949.23
2022-11-20T15:42:57.327Z,949.22
2022-11-20T15:45:57.774Z,949.26
2022-11-20T15:48:57.802Z,949.09
2022-11-20T15:51:57.082Z,949.11
2022-11-20T15:54:57.272Z,949.18
2022-11-20T15:57:57.342Z,949.1
2022-11-20T16:00:58.436Z,949.11
2022-11-20T16:03:57.271Z,949.19
2022-11-20T16:06:57.883Z,949.09
2022-11-20T16:09:57.387Z,949.02
2022-11-20T16:12:56.679Z,949.11
2022-11-20T16:15:56.792Z,949.12
2022-11-20T16:18:57.376Z,949.05
2022-11-20T16:22:02.472Z,948.97
2022-11-20T16:24:57.145Z,948.94
2022-11-20T16:27:57.349Z,948.94
2022-11-20T16:30:57.228Z,949.0
2022-11-20T16:33:57.029Z,948.94
2022-11-20T16:36:57.189Z,949.03
2022-11-20T16:39:58.055Z,949.06
2022-11-20T16:42:57.510Z,948.9
2022-11-20T16:45:57.763Z,948.93
2022-11-20T16:48:57.178Z,949.02
2022-11-20T16:51:57.746Z,949.0
2022-11-20T16:54:57.867Z,948.99
2022-11-20T16:57:57.318Z,948.73
2022-11-20T17:00:57.153Z,948.92
2022-11-20T17:03:57.326Z,948.79
2022-11-20T17:06:58.017Z,948.82
2022-11-20T17:09:57.862Z,948.9
2022-11-20T17:12:57.521Z,948.8
2022-11-20T17:15:57.748Z,948.82
2022-11-20T17:19:02.527Z,948.62
2022-11-20T17:21:57.420Z,948.73
2022-11-20T17:24:57.405Z,948.69
2022-11-20T17:27:56.873Z,948.65
2022-11-20T17:30:57.339Z,948.63
2022-11-20T17:33:57.432Z,948.62
2022-11-20T17:36:57.283Z,948.66
2022-11-20T17:39:57.804Z,948.62
2022-11-20T17:42:57.354Z,948.55
2022-11-20T17:45:57.715Z,948.56
2022-11-20T17:48:57.590Z,948.56
2022-11-20T17:51:57.085Z,948.52
2022-11-20T17:54:57.589Z,948.46
2022-11-20T17:57:57.002Z,948.43
2022-11-20T18:01:25.940Z,948.45
2022-11-20T18:03:57.089Z,948.37
2022-11-20T18:06:57.343Z,948.31
2022-11-20T18:09:57.763Z,948.32
2022-11-20T18:12:57.128Z,948.29
2022-11-20T18:15:57.578Z,948.16
2022-11-20T18:18:57.553Z,948.21
2022-11-20T18:21:57.340Z,948.23
2022-11-20T18:24:56.637Z,948.18
2022-11-20T18:27:56.904Z,948.05
2022-11-20T18:30:57.614Z,948.12
2022-11-20T18:33:57.920Z,948.11
2022-11-20T18:36:57.418Z,948.11
2022-11-20T18:39:57.287Z,948.04
2022-11-20T18:42:57.585Z,947.97
2022-11-20T18:45:56.929Z,947.98
2022-11-20T18:48:56.975Z,947.9
2022-11-20T18:51:57.120Z,947.88
2022-11-20T18:54:56.948Z,947.83
2022-11-20T18:57:57.157Z,947.78
2022-11-20T19:00:57.673Z,947.76
2022-11-20T19:03:57.820Z,947.75
2022-11-20T19:06:57.276Z,947.7
2022-11-20T19:10:02.353Z,947.72
2022-11-20T19:12:57.881Z,947.57
2022-11-20T19:15:57.455Z,947.6
2022-11-20T19:18:57.675Z,947.56
2022-11-20T19:21:57.642Z,947.59
2022-11-20T19:24:57.604Z,947.6
2022-11-20T19:27:57.505Z,947.65
2022-11-20T19:30:57.081Z,947.6
2022-11-20T19:33:57.992Z,947.76
2022-11-20T19:36:57.336Z,947.67
2022-11-20T19:39:57.424Z,947.47
2022-11-20T19:42:57.589Z,947.56
2022-11-20T19:45:57.416Z,947.62
2022-11-20T19:48:57.536Z,947.61
2022-11-20T19:51:57.197Z,947.59
2022-11-20T19:54:57.331Z,947.74
2022-11-20T19:57:57.384Z,947.69
2022-11-20T20:00:57.163Z,947.74
2022-11-20T20:03:57.224Z,947.72
2022-11-20T20:06:58.081Z,947.66
2022-11-20T20:09:57.677Z,947.72
2022-11-20T20:12:58.206Z,947.72
2022-11-20T20:15:57.627Z,947.78
2022-11-20T20:18:56.998Z,947.69
2022-11-20T20:21:56.989Z,947.63
2022-11-20T20:24:57.981Z,947.6
2022-11-20T20:27:57.622Z,947.65
2022-11-20T20:30:57.421Z,947.56
2022-11-20T20:33:57.892Z,947.54
2022-11-20T20:36:57.648Z,947.49
2022-11-20T20:39:57.660Z,947.47
2022-11-20T20:42:56.885Z,947.47
2022-11-20T20:45:57.673Z,947.4
2022-11-20T20:48:57.465Z,947.52
2022-11-20T20:51:57.337Z,947.44
2022-11-20T20:54:57.229Z,947.27
2022-11-20T20:57:57.404Z,947.3
2022-11-20T21:00:58.365Z,947.26
2022-11-20T21:03:57.780Z,947.31
2022-11-20T21:06:57.418Z,947.17
2022-11-20T21:09:57.192Z,947.18
2022-11-20T21:12:57.248Z,947.12
2022-11-20T21:15:57.605Z,947.03
2022-11-20T21:18:57.011Z,946.99
2022-11-20T21:21:57.517Z,946.85
2022-11-20T21:24:57.379Z,946.95
2022-11-20T21:27:57.809Z,946.94
2022-11-20T21:30:57.265Z,946.97
2022-11-20T21:33:57.342Z,946.84
2022-11-20T21:36:56.947Z,946.8
2022-11-20T21:39:57.512Z,947.03
2022-11-20T21:42:57.172Z,946.9
2022-11-20T21:45:57.491Z,946.93
2022-11-20T21:48:57.708Z,946.93
2022-11-20T21:51:56.772Z,946.99
2022-11-20T21:54:57.220Z,946.99
2022-11-20T21:57:57.305Z,947.0
2022-11-20T22:00:58.023Z,947.08
2022-11-20T22:03:57.641Z,947.08
2022-11-20T22:06:57.107Z,947.02
2022-11-20T22:09:57.431Z,946.91
2022-11-20T22:12:57.806Z,946.99
2022-11-20T22:16:00.439Z,946.8
2022-11-20T22:18:57.082Z,946.92
2022-11-20T22:21:57.215Z,946.95
2022-11-20T22:24:57.851Z,947.02
2022-11-20T22:27:57.258Z,946.99
2022-11-20T22:30:58.080Z,947.19
2022-11-20T22:33:57.775Z,947.15
2022-11-20T22:36:57.146Z,946.99
2022-11-20T22:39:57.217Z,947.05
2022-11-20T22:42:57.337Z,947.02
2022-11-20T22:45:57.685Z,946.99
2022-11-20T22:48:57.035Z,947.15
2022-11-20T22:51:57.595Z,947.09
2022-11-20T22:54:57.096Z,947.18
2022-11-20T22:57:57.857Z,947.18
2022-11-20T23:00:58.275Z,947.22
2022-11-20T23:03:57.613Z,947.19
2022-11-20T23:06:57.785Z,947.11
2022-11-20T23:09:57.007Z,947.02
2022-11-20T23:12:57.575Z,947.04
2022-11-20T23:15:57.686Z,947.02
2022-11-20T23:18:56.752Z,947.18
2022-11-20T23:21:57.401Z,947.12
2022-11-20T23:24:57.552Z,947.17
2022-11-20T23:27:57.410Z,947.34
2022-11-20T23:30:57.563Z,947.36
2022-11-20T23:33:57.156Z,947.37
2022-11-20T23:36:57.220Z,947.34
2022-11-20T23:39:57.526Z,947.27
2022-11-20T23:42:57.207Z,947.1
2022-11-20T23:45:57.012Z,947.18
2022-11-20T23:48:58.078Z,947.23
2022-11-20T23:51:57.459Z,947.33
2022-11-20T23:54:56.846Z,947.27
2022-11-20T23:57:56.996Z,947.11
